Time;durP1;ratioP1;P1;durP2;ratioP2;P2;SDS_P1;SDS_P2;PMS_P1;PMS_P2;Temp;Humidity;BMP_temperature;BMP_pressure;BME280_temperature;BME280_humidity;BME280_pressure;Samples;Min_cycle;Max_cycle;Signal;HPM_P1;HPM_P2
2023/09/11 00:00:15;;;;;;;30.45;18.48;;;;;;;22.63;64.44;100845.13;688223;28;1502;-93
2023/09/11 00:00:38;;;;;;;24.85;16.92;;;;;;;22.62;64.25;100846.03;685611;28;1336;-94
2023/09/11 00:00:59;;;;;;;23.35;17.55;;;;;;;22.65;64.20;100850.41;680265;29;1244;-93
2023/09/11 00:01:20;;;;;;;23.95;17.45;;;;;;;22.60;64.15;100839.88;688281;28;1217;-92
2023/09/11 00:01:41;;;;;;;30.15;17.65;;;;;;;22.62;64.37;100837.19;685464;28;1363;-94
2023/09/11 00:02:01;;;;;;;29.77;17.67;;;;;;;22.63;64.27;100845.13;682692;28;1262;-93
2023/09/11 00:02:23;;;;;;;28.60;16.88;;;;;;;22.65;64.33;100839.75;682952;29;1257;-93
2023/09/11 00:02:43;;;;;;;23.50;17.27;;;;;;;22.65;64.31;100845.97;679514;29;1242;-93
2023/09/11 00:03:04;;;;;;;21.93;16.83;;;;;;;22.64;64.25;100836.25;682163;29;1210;-93
2023/09/11 00:03:26;;;;;;;23.52;17.20;;;;;;;22.70;64.15;100851.19;685741;28;1445;-94
2023/09/11 00:03:48;;;;;;;26.55;17.65;;;;;;;22.63;64.21;100839.81;688267;28;1209;-93
2023/09/11 00:04:09;;;;;;;27.02;17.50;;;;;;;22.64;64.04;100838.91;688242;28;1227;-92
2023/09/11 00:04:29;;;;;;;26.45;17.95;;;;;;;22.68;64.00;100845.91;683018;29;1154;-94
2023/09/11 00:04:50;;;;;;;24.40;17.83;;;;;;;22.64;64.21;100838.91;680380;29;1230;-94
2023/09/11 00:05:11;;;;;;;23.30;17.83;;;;;;;22.65;64.13;100835.34;682808;29;1131;-93
2023/09/11 00:05:31;;;;;;;25.23;18.38;;;;;;;22.68;64.00;100845.03;682909;29;1143;-93
2023/09/11 00:06:03;;;;;;;26.67;18.70;;;;;;;22.62;64.00;100830.06;680341;29;1277;-92
2023/09/11 00:06:27;;;;;;;26.90;18.60;;;;;;;22.65;64.17;100843.31;680145;29;1244;-93
2023/09/11 00:06:48;;;;;;;25.50;17.95;;;;;;;22.62;64.04;100838.03;682990;28;1339;-94
2023/09/11 00:07:08;;;;;;;24.30;17.08;;;;;;;22.62;64.09;100838.03;680111;29;1255;-94
2023/09/11 00:07:29;;;;;;;25.43;16.70;;;;;;;22.62;64.24;100834.53;682863;28;1256;-93
2023/09/11 00:07:50;;;;;;;26.63;17.10;;;;;;;22.60;64.08;100834.56;682794;29;1915;-92
2023/09/11 00:08:11;;;;;;;27.05;17.40;;;;;;;22.63;64.26;100839.81;677521;29;1212;-92
2023/09/11 00:08:33;;;;;;;26.75;17.92;;;;;;;22.57;64.00;100829.31;682710;29;1304;-94
2023/09/11 00:08:53;;;;;;;24.98;17.58;;;;;;;22.59;64.03;100832.81;680445;29;1385;-93
2023/09/11 00:09:14;;;;;;;23.88;17.35;;;;;;;22.60;64.06;100838.09;685121;28;1250;-93
2023/09/11 00:09:35;;;;;;;20.90;16.60;;;;;;;22.57;64.07;100835.47;685606;28;1259;-92
2023/09/11 00:09:56;;;;;;;21.02;16.70;;;;;;;22.59;63.96;100840.78;680167;29;1302;-93
2023/09/11 00:10:17;;;;;;;22.02;16.70;;;;;;;22.53;63.84;100833.81;684760;28;1152;-93
2023/09/11 00:10:37;;;;;;;21.17;16.20;;;;;;;22.58;63.85;100845.22;677651;29;1160;-93
2023/09/11 00:10:58;;;;;;;22.43;16.63;;;;;;;22.44;64.20;100821.56;677707;29;1241;-93
2023/09/11 00:11:19;;;;;;;21.97;16.37;;;;;;;22.50;64.15;100833.84;690111;28;1419;-93
2023/09/11 00:11:39;;;;;;;23.45;16.48;;;;;;;22.46;64.06;100835.72;691534;28;1203;-94
2023/09/11 00:12:00;;;;;;;22.13;15.82;;;;;;;22.46;63.82;100837.50;691277;28;1214;-94
2023/09/11 00:12:21;;;;;;;21.03;15.73;;;;;;;22.44;64.03;100832.22;686082;28;1259;-93
2023/09/11 00:12:42;;;;;;;19.27;15.80;;;;;;;22.44;63.70;100832.22;683598;28;1252;-94
2023/09/11 00:13:03;;;;;;;18.90;15.50;;;;;;;22.44;64.13;100837.53;686216;28;1180;-92
2023/09/11 00:13:24;;;;;;;18.58;15.60;;;;;;;22.40;63.82;100833.19;685934;28;1353;-93
2023/09/11 00:13:44;;;;;;;19.10;15.15;;;;;;;22.37;63.85;100832.38;680769;29;1239;-93
2023/09/11 00:14:05;;;;;;;18.92;14.95;;;;;;;22.36;64.01;100831.50;683303;28;1465;-94
2023/09/11 00:14:27;;;;;;;19.38;14.50;;;;;;;22.36;64.02;100831.50;688815;28;1194;-94
2023/09/11 00:14:48;;;;;;;18.25;13.73;;;;;;;22.35;64.10;100831.53;688190;28;1318;-94
2023/09/11 00:15:09;;;;;;;19.97;13.77;;;;;;;22.30;64.02;100831.63;691461;28;1200;-93
2023/09/11 00:15:32;;;;;;;18.83;13.85;;;;;;;22.33;63.86;100836.88;685975;28;1233;-93
2023/09/11 00:15:53;;;;;;;20.92;14.55;;;;;;;22.30;64.11;100836.94;683423;29;1264;-94
2023/09/11 00:17:48;;;;;;;21.48;14.93;;;;;;;22.27;64.14;100831.69;681615;29;1263;-93
2023/09/11 00:18:09;;;;;;;19.40;14.10;;;;;;;22.24;64.04;100824.63;684155;28;1208;-93
2023/09/11 00:18:29;;;;;;;16.95;13.55;;;;;;;22.25;64.19;100825.50;691504;28;1253;-93
2023/09/11 00:18:50;;;;;;;15.95;13.40;;;;;;;22.22;64.12;100831.75;685713;28;1294;-92
2023/09/11 00:19:12;;;;;;;15.98;13.48;;;;;;;22.24;64.18;100826.41;680853;29;1206;-93
2023/09/11 00:19:33;;;;;;;18.07;14.30;;;;;;;22.24;64.08;100829.06;680676;29;1223;-93
2023/09/11 00:19:54;;;;;;;21.00;15.20;;;;;;;22.24;64.13;100829.06;680895;28;1252;-93
2023/09/11 00:20:15;;;;;;;23.77;15.23;;;;;;;22.23;64.10;100824.63;686014;28;1320;-93
2023/09/11 00:20:36;;;;;;;24.77;15.70;;;;;;;22.18;64.28;100817.66;683298;28;1289;-93
2023/09/11 00:20:57;;;;;;;25.15;16.35;;;;;;;22.18;64.24;100822.06;683041;29;1111;-92
2023/09/11 00:21:18;;;;;;;27.02;17.45;;;;;;;22.21;64.31;100827.34;680610;29;1280;-91
2023/09/11 00:21:39;;;;;;;26.00;17.38;;;;;;;22.22;64.33;100822.88;683355;28;1221;-90
2023/09/11 00:22:00;;;;;;;25.75;17.00;;;;;;;22.27;64.45;100826.38;686038;28;1256;-91
2023/09/11 00:22:21;;;;;;;23.90;17.10;;;;;;;22.27;64.50;100823.72;683406;29;1200;-92
2023/09/11 00:22:42;;;;;;;21.73;16.58;;;;;;;22.25;64.38;100823.75;685416;28;1306;-91
2023/09/11 00:23:03;;;;;;;19.95;16.42;;;;;;;22.28;64.49;100828.13;685790;28;1357;-91
2023/09/11 00:23:24;;;;;;;24.80;15.55;;;;;;;22.25;64.55;100823.75;683135;29;1313;-92
2023/09/11 00:23:45;;;;;;;28.85;16.33;;;;;;;22.28;64.68;100822.81;679790;29;1261;-91
2023/09/11 00:24:06;;;;;;;27.70;15.88;;;;;;;22.26;64.65;100819.31;686002;28;1239;-91
2023/09/11 00:24:26;;;;;;;20.33;15.63;;;;;;;22.25;64.60;100823.75;687720;28;1339;-92
2023/09/11 00:24:47;;;;;;;17.90;14.32;;;;;;;22.27;64.48;100823.72;680846;29;1177;-91
2023/09/11 00:25:08;;;;;;;20.45;14.40;;;;;;;22.31;64.63;100838.69;680206;29;1231;-91
2023/09/11 00:25:29;;;;;;;20.58;14.40;;;;;;;22.25;64.53;100822.84;683348;29;1276;-92
2023/09/11 00:25:50;;;;;;;18.90;13.77;;;;;;;22.27;64.38;100827.25;683467;29;1379;-92
2023/09/11 00:26:10;;;;;;;19.20;13.90;;;;;;;22.28;64.46;100825.47;686008;28;1192;-91
2023/09/11 00:26:31;;;;;;;18.70;14.00;;;;;;;22.24;64.67;100816.63;683364;29;1102;-91
2023/09/11 00:26:52;;;;;;;19.35;15.00;;;;;;;22.24;64.50;100821.09;678169;29;1291;-91
2023/09/11 00:27:13;;;;;;;17.83;15.50;;;;;;;22.22;64.47;100817.56;683340;29;1385;-92
2023/09/11 00:27:36;;;;;;;19.98;16.33;;;;;;;22.20;64.45;100814.97;685841;28;1910;-91
2023/09/11 00:27:56;;;;;;;33.83;16.77;;;;;;;22.24;64.54;100819.28;680322;29;1285;-91
2023/09/11 00:28:17;;;;;;;34.83;17.77;;;;;;;22.21;64.65;100822.03;685766;28;1262;-92
2023/09/11 00:28:38;;;;;;;34.78;17.10;;;;;;;22.24;64.66;100821.09;680614;29;1157;-91
2023/09/11 00:28:58;;;;;;;23.33;15.83;;;;;;;22.23;64.57;100819.31;683348;29;1237;-92
2023/09/11 00:29:19;;;;;;;21.60;14.48;;;;;;;22.19;64.57;100824.72;691384;28;1187;-92
2023/09/11 00:29:40;;;;;;;25.17;14.27;;;;;;;22.18;64.45;100817.66;686039;28;1421;-92
2023/09/11 00:30:00;;;;;;;32.47;14.88;;;;;;;22.19;64.40;100819.41;688762;28;1214;-91
2023/09/11 00:30:21;;;;;;;30.90;14.82;;;;;;;22.16;64.39;100813.25;683316;29;1138;-91
2023/09/11 00:30:42;;;;;;;26.73;15.27;;;;;;;22.22;64.68;100822.88;678172;29;1302;-91
2023/09/11 00:31:03;;;;;;;21.17;15.67;;;;;;;22.13;64.39;100808.88;688626;28;1129;-91
2023/09/11 00:31:24;;;;;;;23.80;16.58;;;;;;;22.21;64.60;100831.78;686127;28;1272;-92
2023/09/11 00:31:44;;;;;;;24.33;17.20;;;;;;;22.20;64.60;100825.59;680857;29;1313;-91
2023/09/11 00:32:06;;;;;;;23.42;17.17;;;;;;;22.18;64.66;100819.41;685948;28;1418;-91
2023/09/11 00:32:26;;;;;;;21.48;16.55;;;;;;;22.17;64.64;100813.25;685705;28;1159;-92
2023/09/11 00:32:47;;;;;;;21.50;16.40;;;;;;;22.21;64.89;100822.03;678712;29;1132;-92
2023/09/11 00:33:08;;;;;;;20.65;16.15;;;;;;;22.20;64.81;100820.28;683249;28;1240;-91
2023/09/11 00:33:28;;;;;;;21.98;16.17;;;;;;;22.15;64.88;100811.50;685947;28;1311;-92
2023/09/11 00:33:49;;;;;;;21.33;16.30;;;;;;;22.21;64.97;100814.06;683439;28;1216;-92
2023/09/11 00:34:10;;;;;;;23.58;16.77;;;;;;;22.24;64.81;100821.09;683021;28;1379;-92
2023/09/11 00:34:31;;;;;;;26.67;17.38;;;;;;;22.24;64.66;100823.75;683389;28;1269;-92
2023/09/11 00:34:52;;;;;;;30.33;17.48;;;;;;;22.21;65.07;100811.41;681010;29;1383;-91
2023/09/11 00:35:13;;;;;;;28.38;16.75;;;;;;;22.23;64.84;100821.97;685913;28;1280;-92
2023/09/11 00:35:34;;;;;;;26.05;16.63;;;;;;;22.21;65.01;100807.84;683275;29;1177;-92
2023/09/11 00:35:55;;;;;;;24.50;16.50;;;;;;;22.17;64.77;100805.28;682538;29;1194;-93
2023/09/11 00:36:16;;;;;;;24.48;17.52;;;;;;;22.24;64.77;100819.28;685898;28;1367;-92
2023/09/11 00:36:37;;;;;;;23.42;17.15;;;;;;;22.23;65.02;100812.22;688270;28;1242;-92
2023/09/11 00:36:58;;;;;;;23.92;16.75;;;;;;;22.21;64.96;100807.84;686009;28;1280;-92
2023/09/11 00:37:18;;;;;;;27.10;16.30;;;;;;;22.23;64.78;100811.34;685943;28;1318;-91
2023/09/11 00:37:39;;;;;;;33.20;16.60;;;;;;;22.25;64.88;100826.41;677715;29;1178;-91
2023/09/11 00:38:00;;;;;;;32.43;16.30;;;;;;;22.21;64.81;100811.41;683157;29;1251;-93
2023/09/11 00:38:21;;;;;;;28.33;16.40;;;;;;;22.18;64.77;100811.44;685892;28;1169;-92
2023/09/11 00:38:41;;;;;;;22.85;15.65;;;;;;;22.14;64.54;100800.00;685067;28;1211;-92
2023/09/11 00:39:03;;;;;;;20.98;15.70;;;;;;;22.17;64.58;100805.28;678004;29;1230;-91
2023/09/11 00:39:24;;;;;;;23.13;15.80;;;;;;;22.15;64.62;100812.41;680702;29;1737;-92
2023/09/11 00:39:45;;;;;;;21.37;15.37;;;;;;;22.13;64.61;100802.72;688555;28;1197;-92
2023/09/11 00:40:06;;;;;;;20.88;15.25;;;;;;;22.14;64.72;100807.97;678117;29;1222;-92
2023/09/11 00:40:27;;;;;;;20.38;15.40;;;;;;;22.10;64.61;100802.75;677803;29;1378;-91
2023/09/11 00:40:48;;;;;;;20.40;15.57;;;;;;;22.11;64.47;100805.38;686023;28;1188;-92
2023/09/11 00:41:09;;;;;;;20.48;15.15;;;;;;;22.12;64.67;100815.09;680461;29;1177;-93
2023/09/11 00:41:29;;;;;;;18.60;14.32;;;;;;;22.04;64.68;100804.63;688536;28;1167;-92
2023/09/11 00:41:50;;;;;;;21.25;13.60;;;;;;;22.11;64.43;100812.47;691373;28;1291;-91
2023/09/11 00:42:11;;;;;;;22.02;13.73;;;;;;;22.03;64.57;100804.66;680441;29;1321;-92
2023/09/11 00:42:32;;;;;;;24.92;14.00;;;;;;;22.04;64.73;100803.75;680611;29;1460;-92
2023/09/11 00:42:53;;;;;;;26.60;14.53;;;;;;;22.04;64.81;100809.06;683565;28;1157;-92
2023/09/11 00:43:13;;;;;;;26.83;14.35;;;;;;;21.99;64.74;100794.97;683208;29;1217;-92
2023/09/11 00:43:34;;;;;;;24.38;14.40;;;;;;;22.03;64.45;100810.88;680585;29;1259;-92
2023/09/11 00:43:55;;;;;;;18.10;13.80;;;;;;;21.98;64.66;100798.56;672915;29;1150;-91
2023/09/11 00:44:15;;;;;;;17.05;13.65;;;;;;;22.02;64.67;100808.22;685809;28;1429;-92
2023/09/11 00:44:36;;;;;;;17.20;14.00;;;;;;;22.00;64.75;100804.72;685718;28;1281;-92
2023/09/11 00:44:56;;;;;;;26.27;14.50;;;;;;;21.99;64.74;100806.50;679951;29;1229;-93
2023/09/11 00:45:18;;;;;;;27.13;14.68;;;;;;;21.99;64.54;100805.63;680734;29;1577;-91
2023/09/11 00:45:39;;;;;;;28.63;14.95;;;;;;;21.98;64.67;100803.88;680458;28;1201;-92
2023/09/11 00:45:59;;;;;;;21.42;14.77;;;;;;;21.92;64.74;100804.88;680625;29;1226;-92
2023/09/11 00:46:20;;;;;;;21.95;14.55;;;;;;;21.93;64.64;100795.13;683355;29;1163;-91
2023/09/11 00:46:42;;;;;;;19.13;14.00;;;;;;;21.96;64.74;100803.91;680253;29;1318;-91
2023/09/11 00:47:02;;;;;;;26.85;14.93;;;;;;;21.90;64.74;100796.06;685680;28;1195;-92
2023/09/11 00:47:23;;;;;;;27.58;16.20;;;;;;;21.97;64.74;100805.66;685295;28;1201;-91
2023/09/11 00:47:46;;;;;;;26.17;16.27;;;;;;;21.95;64.87;100799.47;680472;29;1986;-91
2023/09/11 00:48:09;;;;;;;19.38;15.70;;;;;;;21.98;64.74;100811.84;683220;29;1289;-92
2023/09/11 00:48:31;;;;;;;19.27;15.38;;;;;;;21.99;64.89;100811.81;680156;29;1186;-92
2023/09/11 00:48:56;;;;;;;19.00;15.00;;;;;;;22.01;64.80;100807.34;680468;29;1384;-91
2023/09/11 00:49:19;;;;;;;18.40;14.50;;;;;;;21.98;65.06;100803.88;680449;29;1413;-91
2023/09/11 00:49:39;;;;;;;18.27;13.82;;;;;;;22.04;64.97;100817.03;685847;28;1206;-91
2023/09/11 00:50:01;;;;;;;17.67;13.65;;;;;;;22.00;64.84;100816.22;686014;28;1310;-92
2023/09/11 00:50:22;;;;;;;19.10;14.10;;;;;;;21.98;64.99;100809.19;686074;28;1346;-91
2023/09/11 00:50:44;;;;;;;18.33;14.13;;;;;;;21.98;64.96;100806.53;680653;29;1315;-91
2023/09/11 00:51:05;;;;;;;22.23;14.60;;;;;;;21.95;65.01;100807.44;677762;29;1334;-92
2023/09/11 00:51:27;;;;;;;21.40;14.65;;;;;;;21.95;64.97;100810.09;680621;29;1297;-93
2023/09/11 00:51:50;;;;;;;20.67;15.10;;;;;;;21.97;65.19;100815.41;680384;29;1288;-91
2023/09/11 00:52:12;;;;;;;21.02;14.95;;;;;;;21.93;65.08;100805.75;687698;28;1257;-91
2023/09/11 00:52:33;;;;;;;21.75;15.50;;;;;;;21.88;65.20;100798.72;683007;28;1310;-91
2023/09/11 00:52:54;;;;;;;22.98;15.85;;;;;;;21.98;65.00;100814.50;680698;29;1204;-91
2023/09/11 00:53:15;;;;;;;20.98;15.77;;;;;;;21.91;64.95;100796.03;685726;28;1230;-91
2023/09/11 00:53:36;;;;;;;18.48;14.80;;;;;;;21.96;65.12;100805.69;683140;28;1293;-91
2023/09/11 00:53:57;;;;;;;16.83;14.13;;;;;;;21.98;65.08;100811.84;685179;28;1206;-90
2023/09/11 00:54:21;;;;;;;18.65;14.98;;;;;;;21.97;64.98;100802.13;685450;28;1267;-91
2023/09/11 00:54:42;;;;;;;23.27;16.70;;;;;;;22.01;65.15;100809.13;685741;28;1197;-90
2023/09/11 00:55:05;;;;;;;24.53;16.97;;;;;;;21.99;65.20;100808.28;688440;28;1197;-91
2023/09/11 00:55:27;;;;;;;23.67;16.27;;;;;;;21.93;65.05;100795.97;685183;28;1250;-92
2023/09/11 00:55:48;;;;;;;21.08;15.02;;;;;;;22.00;65.12;100799.41;683168;29;1201;-91
2023/09/11 00:56:09;;;;;;;18.17;13.97;;;;;;;22.02;65.08;100805.56;680496;29;1277;-91
2023/09/11 00:56:30;;;;;;;20.40;13.70;;;;;;;22.00;65.16;100802.06;685812;28;1185;-91
2023/09/11 00:56:51;;;;;;;21.33;14.38;;;;;;;21.95;65.29;100793.31;680532;29;1419;-91
2023/09/11 00:57:17;;;;;;;23.63;15.77;;;;;;;22.02;65.16;100801.13;677921;29;1388;-91
2023/09/11 00:57:38;;;;;;;22.40;17.00;;;;;;;22.06;65.23;100812.56;683772;28;1642;-92
2023/09/11 00:57:59;;;;;;;22.40;17.25;;;;;;;21.98;65.29;100794.13;683259;29;1253;-91
2023/09/11 00:58:21;;;;;;;21.52;16.77;;;;;;;21.99;65.39;100805.63;684456;28;1155;-91
2023/09/11 00:58:43;;;;;;;23.38;16.60;;;;;;;22.00;65.45;100794.97;688119;28;1277;-91
2023/09/11 00:59:04;;;;;;;21.40;16.30;;;;;;;21.98;65.32;100796.78;688577;28;1431;-91
2023/09/11 00:59:25;;;;;;;19.65;15.48;;;;;;;22.04;65.31;100809.06;690503;28;1350;-91
2023/09/11 00:59:48;;;;;;;20.50;15.40;;;;;;;22.00;65.32;100796.75;688574;28;1271;-91
2023/09/11 01:00:09;;;;;;;19.73;15.02;;;;;;;22.00;65.58;100802.06;683121;28;1310;-91
2023/09/11 01:00:30;;;;;;;18.48;14.68;;;;;;;21.96;65.20;100795.94;683157;28;1197;-91
2023/09/11 01:00:52;;;;;;;17.67;14.40;;;;;;;21.98;65.52;100799.44;683217;29;1261;-92
2023/09/11 01:01:13;;;;;;;17.08;13.45;;;;;;;22.00;65.39;100804.72;680581;29;1214;-91
2023/09/11 01:01:35;;;;;;;16.50;13.43;;;;;;;21.94;65.60;100794.22;683166;29;1141;-91
2023/09/11 01:01:58;;;;;;;19.42;14.65;;;;;;;21.97;65.62;100796.81;688670;28;1254;-92
2023/09/11 01:02:21;;;;;;;21.42;15.73;;;;;;;21.96;65.59;100795.94;685769;28;1347;-91
2023/09/11 01:02:42;;;;;;;16.45;14.23;;;;;;;21.94;65.35;100794.22;683143;29;1254;-91
2023/09/11 01:03:03;;;;;;;15.13;12.65;;;;;;;21.95;65.48;100798.63;680572;29;1143;-91
2023/09/11 01:03:24;;;;;;;15.50;12.75;;;;;;;21.95;65.47;100798.63;688262;28;1204;-92
2023/09/11 01:03:47;;;;;;;21.83;14.98;;;;;;;21.86;65.33;100784.63;685360;28;1189;-91
2023/09/11 01:04:08;;;;;;;24.27;16.08;;;;;;;21.88;65.42;100787.25;678163;29;1247;-92
2023/09/11 01:04:29;;;;;;;32.75;17.38;;;;;;;21.93;65.40;100789.81;685957;28;1364;-90
2023/09/11 01:04:50;;;;;;;32.33;16.77;;;;;;;21.88;65.43;100798.72;688138;28;1189;-91
2023/09/11 01:05:11;;;;;;;28.40;16.30;;;;;;;21.93;65.28;100800.44;683215;28;1183;-91
2023/09/11 01:05:35;;;;;;;26.13;15.45;;;;;;;21.86;65.45;100797.91;685797;28;1335;-92
2023/09/11 01:05:57;;;;;;;23.02;13.55;;;;;;;21.86;65.30;100789.94;683274;28;1404;-92
2023/09/11 01:06:17;;;;;;;25.20;13.65;;;;;;;21.88;65.31;100792.56;683350;28;1193;-91
2023/09/11 01:06:38;;;;;;;18.23;13.75;;;;;;;21.90;65.23;100801.38;686042;28;1271;-92
2023/09/11 01:06:59;;;;;;;20.67;14.32;;;;;;;21.89;65.28;100805.78;688648;28;1285;-92
2023/09/11 01:07:20;;;;;;;21.77;14.53;;;;;;;21.88;65.22;100797.88;680686;29;1185;-92
2023/09/11 01:07:40;;;;;;;25.23;15.02;;;;;;;21.83;65.48;100792.63;688247;28;2456;-91
2023/09/11 01:08:02;;;;;;;29.13;15.88;;;;;;;21.84;65.35;100794.41;683129;29;1267;-91
2023/09/11 01:08:22;;;;;;;26.30;16.00;;;;;;;21.86;65.34;100797.00;683043;29;1202;-91
2023/09/11 01:08:43;;;;;;;26.33;16.00;;;;;;;21.84;65.29;100790.84;680543;29;1267;-92
2023/09/11 01:09:04;;;;;;;25.52;15.85;;;;;;;21.77;65.35;100787.44;682732;29;1203;-91
2023/09/11 01:09:26;;;;;;;26.80;15.68;;;;;;;21.81;65.37;100789.13;682817;29;1329;-91
2023/09/11 01:09:47;;;;;;;23.42;15.95;;;;;;;21.78;65.34;100787.41;685229;28;1340;-92
2023/09/11 01:10:10;;;;;;;22.88;16.20;;;;;;;21.84;65.46;100791.75;682543;29;1229;-91
2023/09/11 01:10:30;;;;;;;22.60;16.23;;;;;;;21.80;65.39;100795.34;683211;29;1241;-91
2023/09/11 01:10:51;;;;;;;24.33;15.90;;;;;;;21.84;65.58;100793.50;686001;28;1303;-91
2023/09/11 01:11:12;;;;;;;23.25;15.75;;;;;;;21.78;65.49;100786.53;679991;29;1412;-92
2023/09/11 01:11:33;;;;;;;23.67;15.83;;;;;;;21.83;65.33;100797.06;682925;29;1260;-91
2023/09/11 01:11:54;;;;;;;22.40;15.93;;;;;;;21.89;65.44;100808.44;682895;29;1294;-92
2023/09/11 01:12:14;;;;;;;22.60;16.58;;;;;;;21.84;65.52;100802.38;682525;29;1634;-91
2023/09/11 01:12:37;;;;;;;21.63;15.77;;;;;;;21.83;65.46;100789.97;684864;28;1305;-92
2023/09/11 01:12:58;;;;;;;20.88;15.55;;;;;;;21.85;65.42;100796.16;680531;29;1336;-92
2023/09/11 01:13:19;;;;;;;19.53;14.60;;;;;;;21.80;65.49;100784.72;683280;29;1180;-91
2023/09/11 01:13:40;;;;;;;20.83;14.50;;;;;;;21.78;65.67;100786.53;683100;29;1294;-92
2023/09/11 01:14:01;;;;;;;20.40;14.18;;;;;;;21.81;65.31;100801.53;680440;29;1363;-91
2023/09/11 01:14:21;;;;;;;21.52;14.43;;;;;;;21.80;65.38;100802.47;683209;29;1367;-91
2023/09/11 01:14:42;;;;;;;20.35;15.00;;;;;;;21.78;65.66;100790.06;685458;28;1161;-91
2023/09/11 01:15:05;;;;;;;19.95;15.23;;;;;;;21.77;65.48;100790.09;685799;28;1360;-91
2023/09/11 01:15:30;;;;;;;17.60;14.48;;;;;;;21.72;65.47;100790.19;688192;28;1213;-91
2023/09/11 01:16:19;;;;;;;18.15;12.95;;;;;;;21.80;65.52;100800.66;683314;28;1336;-91
2023/09/11 01:16:43;;;;;;;17.05;12.27;;;;;;;21.70;65.58;100783.16;681605;28;1196;-91
2023/09/11 01:17:24;;;;;;;18.65;13.63;;;;;;;21.67;65.39;100784.06;680514;29;1308;-91
2023/09/11 01:18:06;;;;;;;19.23;15.30;;;;;;;21.71;65.41;100799.03;684628;28;1298;-91
2023/09/11 01:18:34;;;;;;;19.33;13.68;;;;;;;21.72;65.51;100797.28;680517;29;1293;-92
2023/09/11 01:19:07;;;;;;;17.20;13.40;;;;;;;21.76;65.48;100804.28;680260;29;1281;-92
2023/09/11 01:19:52;;;;;;;19.88;14.23;;;;;;;21.74;65.39;100801.66;682236;29;1534;-91
2023/09/11 01:20:51;;;;;;;21.58;15.15;;;;;;;21.73;65.43;100804.31;683106;29;1292;-91
2023/09/11 01:21:24;;;;;;;21.75;13.93;;;;;;;21.71;65.43;100804.34;678710;29;1237;-92
2023/09/11 01:22:00;;;;;;;22.65;14.48;;;;;;;21.69;65.49;100803.50;683202;29;1253;-91
2023/09/11 01:22:24;;;;;;;20.13;14.63;;;;;;;21.70;65.59;100804.41;687939;28;1312;-91
2023/09/11 01:23:04;;;;;;;17.75;13.25;;;;;;;21.70;65.40;100801.75;684709;28;1353;-91
2023/09/11 01:23:52;;;;;;;18.00;13.20;;;;;;;21.69;65.40;100797.34;680011;29;1312;-91
2023/09/11 01:25:01;;;;;;;19.30;15.00;;;;;;;21.67;65.40;100807.97;683078;29;1307;-91
2023/09/11 01:25:40;;;;;;;23.90;14.75;;;;;;;21.68;65.45;100806.22;677071;29;1313;-92
2023/09/11 01:26:19;;;;;;;16.45;13.30;;;;;;;21.67;65.62;100805.31;672528;29;1251;-92
2023/09/11 01:26:58;;;;;;;19.98;13.82;;;;;;;21.67;65.57;100796.47;674966;29;1217;-92
2023/09/11 01:27:51;;;;;;;20.30;14.70;;;;;;;21.67;65.65;100804.44;682067;29;1249;-91
2023/09/11 01:28:53;;;;;;;21.67;15.50;;;;;;;21.66;65.51;100802.69;681565;28;1253;-91
2023/09/11 01:29:26;;;;;;;31.25;16.50;;;;;;;21.61;65.58;100798.34;675330;29;1226;-91
2023/09/11 01:29:50;;;;;;;30.70;16.30;;;;;;;21.59;65.59;100792.16;679973;29;1298;-92
2023/09/11 01:30:12;;;;;;;31.10;15.80;;;;;;;21.68;65.82;100801.75;688360;28;1270;-91
2023/09/11 01:30:34;;;;;;;29.65;16.20;;;;;;;21.61;65.72;100790.38;690905;28;1178;-91
2023/09/11 01:30:59;;;;;;;29.20;16.90;;;;;;;21.69;65.90;100802.66;685093;28;1448;-91
2023/09/11 01:31:19;;;;;;;25.35;16.98;;;;;;;21.63;65.90;100793.88;688896;28;1366;-91
2023/09/11 01:31:44;;;;;;;28.67;17.20;;;;;;;21.62;66.24;100794.78;685188;28;1253;-91
2023/09/11 01:32:07;;;;;;;30.42;16.02;;;;;;;21.66;66.13;100798.25;680452;29;1390;-91
2023/09/11 01:32:29;;;;;;;28.00;16.10;;;;;;;21.69;66.18;100805.31;682368;29;1283;-90
2023/09/11 01:32:51;;;;;;;25.55;16.10;;;;;;;21.67;66.24;100796.47;683166;29;1296;-91
2023/09/11 01:33:13;;;;;;;20.60;15.23;;;;;;;21.66;66.21;100789.41;677879;29;1278;-91
2023/09/11 01:33:34;;;;;;;22.70;15.32;;;;;;;21.64;66.15;100785.00;682924;28;1393;-92
2023/09/11 01:34:00;;;;;;;28.63;16.05;;;;;;;21.60;66.14;100782.44;683452;28;1407;-91
2023/09/11 01:34:22;;;;;;;29.85;16.83;;;;;;;21.66;66.08;100792.94;685258;28;1356;-91
2023/09/11 01:34:43;;;;;;;23.95;16.08;;;;;;;21.67;66.29;100793.81;688043;28;1392;-89
2023/09/11 01:35:04;;;;;;;23.58;15.52;;;;;;;21.65;66.12;100791.19;683005;29;1210;-90
2023/09/11 01:35:26;;;;;;;26.20;15.60;;;;;;;21.61;66.17;100784.19;677757;29;1283;-91
2023/09/11 01:35:46;;;;;;;23.45;15.10;;;;;;;21.64;66.22;100785.00;680322;29;1243;-92
2023/09/11 01:36:07;;;;;;;21.60;14.73;;;;;;;21.69;66.29;100797.34;683164;28;1468;-92
2023/09/11 01:36:31;;;;;;;17.50;13.75;;;;;;;21.68;66.08;100800.91;685624;28;1221;-92
2023/09/11 01:36:52;;;;;;;21.33;14.77;;;;;;;21.63;66.30;100787.69;688433;28;1228;-92
2023/09/11 01:37:12;;;;;;;20.40;14.82;;;;;;;21.66;66.13;100794.72;685666;28;1255;-92
2023/09/11 01:37:33;;;;;;;22.42;14.82;;;;;;;21.59;66.14;100792.16;680352;29;1267;-91
2023/09/11 01:37:55;;;;;;;19.57;14.30;;;;;;;21.64;66.44;100797.44;675316;29;1220;-91
2023/09/11 01:38:17;;;;;;;21.85;13.98;;;;;;;21.54;66.24;100780.78;685675;28;1390;-91
2023/09/11 01:38:38;;;;;;;24.05;14.27;;;;;;;21.58;66.28;100784.25;688277;28;1184;-91
2023/09/11 01:39:00;;;;;;;25.50;14.48;;;;;;;21.59;66.36;100794.81;680556;29;1244;-90
2023/09/11 01:39:21;;;;;;;23.45;14.93;;;;;;;21.59;66.41;100786.84;682956;29;1257;-92
2023/09/11 01:39:42;;;;;;;20.25;15.10;;;;;;;21.54;66.37;100778.13;685214;28;1263;-91
2023/09/11 01:40:04;;;;;;;20.10;15.00;;;;;;;21.54;66.16;100786.09;685639;28;1231;-91
2023/09/11 01:40:27;;;;;;;19.17;14.65;;;;;;;21.61;66.31;100801.00;685776;28;1377;-90
2023/09/11 01:40:53;;;;;;;21.75;14.85;;;;;;;21.63;66.25;100798.31;677899;29;1257;-90
2023/09/11 01:41:16;;;;;;;19.88;14.55;;;;;;;21.59;66.12;100797.47;688225;28;1296;-90
2023/09/11 01:41:41;;;;;;;20.73;14.70;;;;;;;21.58;66.25;100793.06;688200;28;1337;-91
2023/09/11 01:42:07;;;;;;;21.00;15.35;;;;;;;21.58;66.24;100802.84;677624;29;1254;-90
2023/09/11 01:42:39;;;;;;;23.23;15.85;;;;;;;21.56;66.13;100794.88;685816;28;1256;-91
2023/09/11 01:43:02;;;;;;;22.92;15.90;;;;;;;21.54;66.30;100799.34;684400;28;1467;-91
2023/09/11 01:43:29;;;;;;;29.25;16.10;;;;;;;21.52;66.20;100790.56;677724;29;1233;-90
2023/09/11 01:43:52;;;;;;;25.95;15.38;;;;;;;21.50;66.28;100787.03;682477;29;1267;-91
2023/09/11 01:44:26;;;;;;;19.65;14.18;;;;;;;21.59;66.20;100801.94;682705;28;1363;-91
2023/09/11 01:44:48;;;;;;;27.20;15.40;;;;;;;21.51;66.34;100791.44;684959;28;1257;-90
2023/09/11 01:45:14;;;;;;;28.15;15.93;;;;;;;21.52;66.49;100795.88;682970;28;1450;-90
2023/09/11 01:45:36;;;;;;;24.38;16.00;;;;;;;21.48;66.21;100783.50;681824;28;1250;-91
2023/09/11 01:46:00;;;;;;;27.58;15.25;;;;;;;21.54;66.10;100799.34;685313;28;1330;-92
2023/09/11 01:46:21;;;;;;;32.08;15.00;;;;;;;21.53;66.14;100797.59;680472;29;1232;-91
2023/09/11 01:46:44;;;;;;;27.40;14.50;;;;;;;21.52;66.18;100801.16;685042;28;1258;-91
2023/09/11 01:47:06;;;;;;;22.02;13.85;;;;;;;21.46;66.21;100788.81;680352;29;1316;-91
2023/09/11 01:47:28;;;;;;;22.90;14.98;;;;;;;21.49;66.20;100798.56;677788;29;1334;-92
2023/09/11 01:47:52;;;;;;;23.45;15.30;;;;;;;21.44;66.22;100785.31;680112;29;1939;-91
2023/09/11 01:48:14;;;;;;;23.27;15.93;;;;;;;21.52;66.25;100806.47;680418;29;1346;-92
2023/09/11 01:48:36;;;;;;;22.45;15.30;;;;;;;21.52;66.36;100801.16;682405;29;1235;-90